sensor_id;sensor_type;location;lat;lon;timestamp;P1;durP1;ratioP1;P2;durP2;ratioP2
49378;SDS011;35254;47.990;-1.608;2023-03-31T00:01:58;17.25;;;4.93;;
49378;SDS011;35254;47.990;-1.608;2023-03-31T00:04:26;16.85;;;3.50;;
49378;SDS011;35254;47.990;-1.608;2023-03-31T00:06:52;14.05;;;3.78;;
49378;SDS011;35254;47.990;-1.608;2023-03-31T00:09:18;12.52;;;3.20;;
49378;SDS011;35254;47.990;-1.608;2023-03-31T00:11:48;11.95;;;3.05;;
49378;SDS011;35254;47.990;-1.608;2023-03-31T00:14:14;14.27;;;3.35;;
49378;SDS011;35254;47.990;-1.608;2023-03-31T00:16:41;19.05;;;3.58;;
49378;SDS011;35254;47.990;-1.608;2023-03-31T00:19:08;17.27;;;3.67;;
49378;SDS011;35254;47.990;-1.608;2023-03-31T00:21:41;16.02;;;3.20;;
49378;SDS011;35254;47.990;-1.608;2023-03-31T00:24:11;17.15;;;4.50;;
49378;SDS011;35254;47.990;-1.608;2023-03-31T00:26:38;14.48;;;3.92;;
49378;SDS011;35254;47.990;-1.608;2023-03-31T00:29:05;12.20;;;3.53;;
49378;SDS011;35254;47.990;-1.608;2023-03-31T00:31:32;14.80;;;3.78;;
49378;SDS011;35254;47.990;-1.608;2023-03-31T00:33:59;20.88;;;3.83;;
49378;SDS011;35254;47.990;-1.608;2023-03-31T00:36:24;10.68;;;2.72;;
49378;SDS011;35254;47.990;-1.608;2023-03-31T00:38:57;14.38;;;3.60;;
49378;SDS011;35254;47.990;-1.608;2023-03-31T00:41:26;13.93;;;3.88;;
49378;SDS011;35254;47.990;-1.608;2023-03-31T00:46:35;13.45;;;3.05;;
49378;SDS011;35254;47.990;-1.608;2023-03-31T00:49:30;13.70;;;4.60;;
49378;SDS011;35254;47.990;-1.608;2023-03-31T00:52:09;12.82;;;3.30;;
49378;SDS011;35254;47.990;-1.608;2023-03-31T00:54:37;19.85;;;4.63;;
49378;SDS011;35254;47.990;-1.608;2023-03-31T00:57:06;13.98;;;3.53;;
49378;SDS011;35254;47.990;-1.608;2023-03-31T00:59:37;13.85;;;3.55;;
49378;SDS011;35254;47.990;-1.608;2023-03-31T01:02:07;13.65;;;3.67;;
49378;SDS011;35254;47.990;-1.608;2023-03-31T01:04:40;15.27;;;4.18;;
49378;SDS011;35254;47.990;-1.608;2023-03-31T01:07:15;14.05;;;5.28;;
49378;SDS011;35254;47.990;-1.608;2023-03-31T01:09:47;20.80;;;4.68;;
49378;SDS011;35254;47.990;-1.608;2023-03-31T01:12:14;14.45;;;4.03;;
49378;SDS011;35254;47.990;-1.608;2023-03-31T01:14:42;14.15;;;4.20;;
49378;SDS011;35254;47.990;-1.608;2023-03-31T01:17:08;17.85;;;3.83;;
49378;SDS011;35254;47.990;-1.608;2023-03-31T01:22:26;15.65;;;4.43;;
49378;SDS011;35254;47.990;-1.608;2023-03-31T01:25:23;21.45;;;3.90;;
49378;SDS011;35254;47.990;-1.608;2023-03-31T01:30:54;12.98;;;4.10;;
49378;SDS011;35254;47.990;-1.608;2023-03-31T01:52:18;14.98;;;3.70;;
49378;SDS011;35254;47.990;-1.608;2023-03-31T01:55:03;14.88;;;4.30;;
49378;SDS011;35254;47.990;-1.608;2023-03-31T01:57:34;15.70;;;3.85;;
49378;SDS011;35254;47.990;-1.608;2023-03-31T02:00:05;16.70;;;3.47;;
49378;SDS011;35254;47.990;-1.608;2023-03-31T02:02:44;14.23;;;4.20;;
49378;SDS011;35254;47.990;-1.608;2023-03-31T02:05:20;12.35;;;3.63;;
49378;SDS011;35254;47.990;-1.608;2023-03-31T02:07:51;16.02;;;4.15;;
49378;SDS011;35254;47.990;-1.608;2023-03-31T02:10:23;24.40;;;4.38;;
49378;SDS011;35254;47.990;-1.608;2023-03-31T02:12:51;16.90;;;3.92;;
49378;SDS011;35254;47.990;-1.608;2023-03-31T02:15:23;18.20;;;4.18;;
49378;SDS011;35254;47.990;-1.608;2023-03-31T02:17:52;14.73;;;3.65;;
49378;SDS011;35254;47.990;-1.608;2023-03-31T02:20:23;11.75;;;3.70;;
49378;SDS011;35254;47.990;-1.608;2023-03-31T02:22:52;16.80;;;4.70;;
49378;SDS011;35254;47.990;-1.608;2023-03-31T02:25:21;17.80;;;3.75;;
49378;SDS011;35254;47.990;-1.608;2023-03-31T02:27:51;24.35;;;6.55;;
49378;SDS011;35254;47.990;-1.608;2023-03-31T02:30:21;14.43;;;4.68;;
49378;SDS011;35254;47.990;-1.608;2023-03-31T02:32:50;18.23;;;4.43;;
49378;SDS011;35254;47.990;-1.608;2023-03-31T02:35:17;14.20;;;3.92;;
49378;SDS011;35254;47.990;-1.608;2023-03-31T02:37:44;15.32;;;4.85;;
49378;SDS011;35254;47.990;-1.608;2023-03-31T02:40:15;16.63;;;4.53;;
49378;SDS011;35254;47.990;-1.608;2023-03-31T02:42:43;15.73;;;4.38;;
49378;SDS011;35254;47.990;-1.608;2023-03-31T02:48:07;17.48;;;4.30;;
49378;SDS011;35254;47.990;-1.608;2023-03-31T02:56:50;11.48;;;3.72;;
49378;SDS011;35254;47.990;-1.608;2023-03-31T03:01:51;21.20;;;4.72;;
49378;SDS011;35254;47.990;-1.608;2023-03-31T03:07:49;17.52;;;4.10;;
49378;SDS011;35254;47.990;-1.608;2023-03-31T03:13:23;16.35;;;3.60;;
49378;SDS011;35254;47.990;-1.608;2023-03-31T03:18:22;17.95;;;4.18;;
49378;SDS011;35254;47.990;-1.608;2023-03-31T03:20:48;18.02;;;4.25;;
49378;SDS011;35254;47.990;-1.608;2023-03-31T03:23:15;17.52;;;3.95;;
49378;SDS011;35254;47.990;-1.608;2023-03-31T03:25:41;17.02;;;4.95;;
49378;SDS011;35254;47.990;-1.608;2023-03-31T03:28:08;18.98;;;4.60;;
49378;SDS011;35254;47.990;-1.608;2023-03-31T03:30:34;17.23;;;3.78;;
49378;SDS011;35254;47.990;-1.608;2023-03-31T03:33:00;17.15;;;4.18;;
49378;SDS011;35254;47.990;-1.608;2023-03-31T03:35:25;14.93;;;4.05;;
49378;SDS011;35254;47.990;-1.608;2023-03-31T03:37:51;12.77;;;3.47;;
49378;SDS011;35254;47.990;-1.608;2023-03-31T03:40:16;22.08;;;4.50;;
49378;SDS011;35254;47.990;-1.608;2023-03-31T03:42:42;12.02;;;3.63;;
49378;SDS011;35254;47.990;-1.608;2023-03-31T03:45:08;15.45;;;3.75;;
49378;SDS011;35254;47.990;-1.608;2023-03-31T03:47:34;18.17;;;4.45;;
49378;SDS011;35254;47.990;-1.608;2023-03-31T03:50:00;14.18;;;4.30;;
49378;SDS011;35254;47.990;-1.608;2023-03-31T03:52:28;19.67;;;5.63;;
49378;SDS011;35254;47.990;-1.608;2023-03-31T03:54:53;20.08;;;4.28;;
49378;SDS011;35254;47.990;-1.608;2023-03-31T03:57:19;17.42;;;4.32;;
49378;SDS011;35254;47.990;-1.608;2023-03-31T03:59:45;18.30;;;4.82;;
49378;SDS011;35254;47.990;-1.608;2023-03-31T04:02:11;19.10;;;5.20;;
49378;SDS011;35254;47.990;-1.608;2023-03-31T04:04:37;16.70;;;4.30;;
49378;SDS011;35254;47.990;-1.608;2023-03-31T04:07:02;17.58;;;4.03;;
49378;SDS011;35254;47.990;-1.608;2023-03-31T04:09:28;15.20;;;3.35;;
49378;SDS011;35254;47.990;-1.608;2023-03-31T04:11:54;15.13;;;3.50;;
49378;SDS011;35254;47.990;-1.608;2023-03-31T04:14:20;12.88;;;3.00;;
49378;SDS011;35254;47.990;-1.608;2023-03-31T04:16:45;16.02;;;4.32;;
49378;SDS011;35254;47.990;-1.608;2023-03-31T04:19:12;15.15;;;3.55;;
49378;SDS011;35254;47.990;-1.608;2023-03-31T04:21:41;17.42;;;4.20;;
49378;SDS011;35254;47.990;-1.608;2023-03-31T04:24:09;14.55;;;4.30;;
49378;SDS011;35254;47.990;-1.608;2023-03-31T04:26:36;15.90;;;3.22;;
49378;SDS011;35254;47.990;-1.608;2023-03-31T04:29:12;16.58;;;4.03;;
49378;SDS011;35254;47.990;-1.608;2023-03-31T04:31:40;9.68;;;3.13;;
49378;SDS011;35254;47.990;-1.608;2023-03-31T04:34:09;13.35;;;3.75;;
49378;SDS011;35254;47.990;-1.608;2023-03-31T04:36:39;14.27;;;4.10;;
49378;SDS011;35254;47.990;-1.608;2023-03-31T04:39:13;13.55;;;3.33;;
49378;SDS011;35254;47.990;-1.608;2023-03-31T04:41:40;12.10;;;3.13;;
49378;SDS011;35254;47.990;-1.608;2023-03-31T04:44:06;16.65;;;3.67;;
49378;SDS011;35254;47.990;-1.608;2023-03-31T04:46:32;14.20;;;4.05;;
49378;SDS011;35254;47.990;-1.608;2023-03-31T04:48:59;16.02;;;4.80;;
49378;SDS011;35254;47.990;-1.608;2023-03-31T04:51:25;19.50;;;3.75;;
49378;SDS011;35254;47.990;-1.608;2023-03-31T04:53:51;10.52;;;3.38;;
49378;SDS011;35254;47.990;-1.608;2023-03-31T04:56:17;11.43;;;4.35;;
49378;SDS011;35254;47.990;-1.608;2023-03-31T04:58:42;16.13;;;3.88;;
49378;SDS011;35254;47.990;-1.608;2023-03-31T05:01:08;18.08;;;5.45;;
49378;SDS011;35254;47.990;-1.608;2023-03-31T05:03:37;10.48;;;3.38;;
49378;SDS011;35254;47.990;-1.608;2023-03-31T05:06:03;11.70;;;3.63;;
49378;SDS011;35254;47.990;-1.608;2023-03-31T05:08:29;17.52;;;3.60;;
49378;SDS011;35254;47.990;-1.608;2023-03-31T05:10:55;14.98;;;3.85;;
49378;SDS011;35254;47.990;-1.608;2023-03-31T05:13:21;11.77;;;2.95;;
49378;SDS011;35254;47.990;-1.608;2023-03-31T05:15:47;13.85;;;5.07;;
49378;SDS011;35254;47.990;-1.608;2023-03-31T05:18:14;10.23;;;3.40;;
49378;SDS011;35254;47.990;-1.608;2023-03-31T05:20:40;7.35;;;2.65;;
49378;SDS011;35254;47.990;-1.608;2023-03-31T05:23:06;9.52;;;2.72;;
49378;SDS011;35254;47.990;-1.608;2023-03-31T05:25:32;11.88;;;2.85;;
49378;SDS011;35254;47.990;-1.608;2023-03-31T05:27:58;13.77;;;2.95;;
49378;SDS011;35254;47.990;-1.608;2023-03-31T05:30:24;18.58;;;4.32;;
49378;SDS011;35254;47.990;-1.608;2023-03-31T05:32:51;17.63;;;4.18;;
49378;SDS011;35254;47.990;-1.608;2023-03-31T05:35:17;10.65;;;3.00;;
49378;SDS011;35254;47.990;-1.608;2023-03-31T05:37:43;12.00;;;3.63;;
49378;SDS011;35254;47.990;-1.608;2023-03-31T05:40:09;15.98;;;3.10;;
49378;SDS011;35254;47.990;-1.608;2023-03-31T05:42:35;9.40;;;2.45;;
49378;SDS011;35254;47.990;-1.608;2023-03-31T05:45:01;16.40;;;3.88;;
49378;SDS011;35254;47.990;-1.608;2023-03-31T05:47:27;11.48;;;3.03;;
49378;SDS011;35254;47.990;-1.608;2023-03-31T05:49:52;13.88;;;3.25;;
49378;SDS011;35254;47.990;-1.608;2023-03-31T05:52:18;15.93;;;3.30;;
49378;SDS011;35254;47.990;-1.608;2023-03-31T05:54:43;12.07;;;3.22;;
49378;SDS011;35254;47.990;-1.608;2023-03-31T05:57:09;12.77;;;3.33;;
49378;SDS011;35254;47.990;-1.608;2023-03-31T05:59:35;10.77;;;3.30;;
49378;SDS011;35254;47.990;-1.608;2023-03-31T06:02:02;10.02;;;3.72;;
49378;SDS011;35254;47.990;-1.608;2023-03-31T06:04:28;8.45;;;2.42;;
49378;SDS011;35254;47.990;-1.608;2023-03-31T06:06:55;9.38;;;2.50;;
49378;SDS011;35254;47.990;-1.608;2023-03-31T06:09:22;9.45;;;2.83;;
49378;SDS011;35254;47.990;-1.608;2023-03-31T06:11:47;12.23;;;3.05;;
49378;SDS011;35254;47.990;-1.608;2023-03-31T06:14:13;14.23;;;3.58;;
49378;SDS011;35254;47.990;-1.608;2023-03-31T06:16:39;13.60;;;2.75;;
49378;SDS011;35254;47.990;-1.608;2023-03-31T06:19:05;9.52;;;2.05;;
49378;SDS011;35254;47.990;-1.608;2023-03-31T06:21:31;10.55;;;3.15;;
49378;SDS011;35254;47.990;-1.608;2023-03-31T06:23:57;10.35;;;2.55;;
49378;SDS011;35254;47.990;-1.608;2023-03-31T06:26:24;13.82;;;3.35;;
49378;SDS011;35254;47.990;-1.608;2023-03-31T06:28:50;13.85;;;3.03;;
49378;SDS011;35254;47.990;-1.608;2023-03-31T06:31:17;10.05;;;3.03;;
49378;SDS011;35254;47.990;-1.608;2023-03-31T06:33:44;13.35;;;3.10;;
49378;SDS011;35254;47.990;-1.608;2023-03-31T06:36:12;12.20;;;2.63;;
49378;SDS011;35254;47.990;-1.608;2023-03-31T06:38:39;20.75;;;3.08;;
49378;SDS011;35254;47.990;-1.608;2023-03-31T06:41:05;11.52;;;2.67;;
49378;SDS011;35254;47.990;-1.608;2023-03-31T06:43:32;12.27;;;4.53;;
49378;SDS011;35254;47.990;-1.608;2023-03-31T06:45:58;10.88;;;2.63;;
49378;SDS011;35254;47.990;-1.608;2023-03-31T06:48:24;17.85;;;4.35;;
49378;SDS011;35254;47.990;-1.608;2023-03-31T06:50:51;17.35;;;3.20;;
49378;SDS011;35254;47.990;-1.608;2023-03-31T06:53:18;12.10;;;2.90;;
49378;SDS011;35254;47.990;-1.608;2023-03-31T06:55:44;12.10;;;3.08;;
49378;SDS011;35254;47.990;-1.608;2023-03-31T06:58:09;12.98;;;3.17;;
49378;SDS011;35254;47.990;-1.608;2023-03-31T07:00:36;8.70;;;3.10;;
49378;SDS011;35254;47.990;-1.608;2023-03-31T07:03:02;11.52;;;2.67;;
49378;SDS011;35254;47.990;-1.608;2023-03-31T07:05:28;7.45;;;2.35;;
49378;SDS011;35254;47.990;-1.608;2023-03-31T07:07:55;9.07;;;2.78;;
49378;SDS011;35254;47.990;-1.608;2023-03-31T07:10:23;13.73;;;2.72;;
49378;SDS011;35254;47.990;-1.608;2023-03-31T07:12:50;11.35;;;3.20;;
49378;SDS011;35254;47.990;-1.608;2023-03-31T07:15:16;11.93;;;3.55;;
49378;SDS011;35254;47.990;-1.608;2023-03-31T07:17:42;10.32;;;2.70;;
49378;SDS011;35254;47.990;-1.608;2023-03-31T07:20:08;15.05;;;3.13;;
49378;SDS011;35254;47.990;-1.608;2023-03-31T07:22:36;9.40;;;2.92;;
49378;SDS011;35254;47.990;-1.608;2023-03-31T07:25:02;11.55;;;2.90;;
49378;SDS011;35254;47.990;-1.608;2023-03-31T07:27:28;9.07;;;2.30;;
49378;SDS011;35254;47.990;-1.608;2023-03-31T07:29:54;12.57;;;3.15;;
49378;SDS011;35254;47.990;-1.608;2023-03-31T07:32:20;8.50;;;2.47;;
49378;SDS011;35254;47.990;-1.608;2023-03-31T07:34:47;12.10;;;3.08;;
49378;SDS011;35254;47.990;-1.608;2023-03-31T07:37:13;14.18;;;3.78;;
49378;SDS011;35254;47.990;-1.608;2023-03-31T07:39:38;12.77;;;3.13;;
49378;SDS011;35254;47.990;-1.608;2023-03-31T07:42:04;11.35;;;2.63;;
49378;SDS011;35254;47.990;-1.608;2023-03-31T07:44:32;11.50;;;3.03;;
49378;SDS011;35254;47.990;-1.608;2023-03-31T07:46:58;16.20;;;3.15;;
49378;SDS011;35254;47.990;-1.608;2023-03-31T07:49:28;15.18;;;3.55;;
49378;SDS011;35254;47.990;-1.608;2023-03-31T07:51:54;15.75;;;3.30;;
49378;SDS011;35254;47.990;-1.608;2023-03-31T07:54:20;12.02;;;3.50;;
49378;SDS011;35254;47.990;-1.608;2023-03-31T07:56:46;12.75;;;3.60;;
49378;SDS011;35254;47.990;-1.608;2023-03-31T07:59:11;13.05;;;3.88;;
49378;SDS011;35254;47.990;-1.608;2023-03-31T08:01:37;11.35;;;3.03;;
49378;SDS011;35254;47.990;-1.608;2023-03-31T08:04:03;10.70;;;3.08;;
49378;SDS011;35254;47.990;-1.608;2023-03-31T08:06:29;12.82;;;2.72;;
49378;SDS011;35254;47.990;-1.608;2023-03-31T08:08:54;14.98;;;2.63;;
49378;SDS011;35254;47.990;-1.608;2023-03-31T08:11:21;11.27;;;2.75;;
49378;SDS011;35254;47.990;-1.608;2023-03-31T08:13:48;9.88;;;2.85;;
49378;SDS011;35254;47.990;-1.608;2023-03-31T08:16:14;13.18;;;2.75;;
49378;SDS011;35254;47.990;-1.608;2023-03-31T08:18:39;7.95;;;2.75;;
49378;SDS011;35254;47.990;-1.608;2023-03-31T08:21:06;17.48;;;3.45;;
49378;SDS011;35254;47.990;-1.608;2023-03-31T08:23:33;11.25;;;2.85;;
49378;SDS011;35254;47.990;-1.608;2023-03-31T08:26:15;19.02;;;3.20;;
49378;SDS011;35254;47.990;-1.608;2023-03-31T08:28:42;8.68;;;2.17;;
49378;SDS011;35254;47.990;-1.608;2023-03-31T08:31:08;8.93;;;2.85;;
49378;SDS011;35254;47.990;-1.608;2023-03-31T08:33:35;19.85;;;3.95;;
49378;SDS011;35254;47.990;-1.608;2023-03-31T08:36:04;13.05;;;2.60;;
49378;SDS011;35254;47.990;-1.608;2023-03-31T08:38:34;14.43;;;3.55;;
49378;SDS011;35254;47.990;-1.608;2023-03-31T08:41:04;13.50;;;3.13;;
49378;SDS011;35254;47.990;-1.608;2023-03-31T08:43:37;11.63;;;2.97;;
49378;SDS011;35254;47.990;-1.608;2023-03-31T08:46:07;19.20;;;3.67;;
49378;SDS011;35254;47.990;-1.608;2023-03-31T08:48:45;13.55;;;3.70;;
49378;SDS011;35254;47.990;-1.608;2023-03-31T08:51:19;14.75;;;4.15;;
49378;SDS011;35254;47.990;-1.608;2023-03-31T08:53:49;15.00;;;3.28;;
49378;SDS011;35254;47.990;-1.608;2023-03-31T08:56:21;17.92;;;3.95;;
49378;SDS011;35254;47.990;-1.608;2023-03-31T08:58:50;16.30;;;3.75;;
49378;SDS011;35254;47.990;-1.608;2023-03-31T09:06:41;14.70;;;3.58;;
49378;SDS011;35254;47.990;-1.608;2023-03-31T09:09:19;17.27;;;3.75;;
49378;SDS011;35254;47.990;-1.608;2023-03-31T09:12:09;16.38;;;3.22;;
49378;SDS011;35254;47.990;-1.608;2023-03-31T09:14:41;8.98;;;2.55;;
49378;SDS011;35254;47.990;-1.608;2023-03-31T09:17:21;9.52;;;3.47;;
49378;SDS011;35254;47.990;-1.608;2023-03-31T09:19:54;10.43;;;2.83;;
49378;SDS011;35254;47.990;-1.608;2023-03-31T09:22:37;13.10;;;2.83;;
49378;SDS011;35254;47.990;-1.608;2023-03-31T09:25:52;17.73;;;4.28;;
49378;SDS011;35254;47.990;-1.608;2023-03-31T09:30:28;11.63;;;2.65;;
49378;SDS011;35254;47.990;-1.608;2023-03-31T09:33:13;10.35;;;3.47;;
49378;SDS011;35254;47.990;-1.608;2023-03-31T09:35:42;11.93;;;2.70;;
49378;SDS011;35254;47.990;-1.608;2023-03-31T09:38:11;17.63;;;3.80;;
49378;SDS011;35254;47.990;-1.608;2023-03-31T09:40:39;9.90;;;2.35;;
49378;SDS011;35254;47.990;-1.608;2023-03-31T09:43:07;15.98;;;2.90;;
49378;SDS011;35254;47.990;-1.608;2023-03-31T09:45:40;15.07;;;3.85;;
49378;SDS011;35254;47.990;-1.608;2023-03-31T09:48:16;8.60;;;2.33;;
49378;SDS011;35254;47.990;-1.608;2023-03-31T09:50:45;12.85;;;2.60;;
49378;SDS011;35254;47.990;-1.608;2023-03-31T09:53:46;10.40;;;3.88;;
49378;SDS011;35254;47.990;-1.608;2023-03-31T09:56:30;9.25;;;2.78;;
49378;SDS011;35254;47.990;-1.608;2023-03-31T09:59:17;8.75;;;2.00;;
49378;SDS011;35254;47.990;-1.608;2023-03-31T10:01:46;7.20;;;2.05;;
49378;SDS011;35254;47.990;-1.608;2023-03-31T10:04:21;11.80;;;3.50;;
49378;SDS011;35254;47.990;-1.608;2023-03-31T10:06:48;12.68;;;3.10;;
49378;SDS011;35254;47.990;-1.608;2023-03-31T10:09:18;12.48;;;3.20;;
49378;SDS011;35254;47.990;-1.608;2023-03-31T10:14:43;10.52;;;2.70;;
49378;SDS011;35254;47.990;-1.608;2023-03-31T10:17:14;11.43;;;3.28;;
49378;SDS011;35254;47.990;-1.608;2023-03-31T10:19:58;8.88;;;2.55;;
49378;SDS011;35254;47.990;-1.608;2023-03-31T10:22:42;8.77;;;2.97;;
49378;SDS011;35254;47.990;-1.608;2023-03-31T10:25:12;9.23;;;2.08;;
49378;SDS011;35254;47.990;-1.608;2023-03-31T10:27:41;6.57;;;1.60;;
49378;SDS011;35254;47.990;-1.608;2023-03-31T10:30:16;10.10;;;2.28;;
49378;SDS011;35254;47.990;-1.608;2023-03-31T10:32:46;7.78;;;2.67;;
49378;SDS011;35254;47.990;-1.608;2023-03-31T10:35:25;8.75;;;2.75;;
49378;SDS011;35254;47.990;-1.608;2023-03-31T10:37:57;8.77;;;2.47;;
49378;SDS011;35254;47.990;-1.608;2023-03-31T10:40:27;10.00;;;2.15;;
49378;SDS011;35254;47.990;-1.608;2023-03-31T10:43:12;8.70;;;2.28;;
49378;SDS011;35254;47.990;-1.608;2023-03-31T10:45:53;16.20;;;3.08;;
49378;SDS011;35254;47.990;-1.608;2023-03-31T10:50:52;9.60;;;2.38;;
49378;SDS011;35254;47.990;-1.608;2023-03-31T10:53:19;12.40;;;3.10;;
49378;SDS011;35254;47.990;-1.608;2023-03-31T11:04:15;9.68;;;2.88;;
49378;SDS011;35254;47.990;-1.608;2023-03-31T11:17:55;7.25;;;2.22;;
49378;SDS011;35254;47.990;-1.608;2023-03-31T11:23:19;7.93;;;2.80;;
49378;SDS011;35254;47.990;-1.608;2023-03-31T11:26:19;4.97;;;1.88;;
49378;SDS011;35254;47.990;-1.608;2023-03-31T11:42:59;12.27;;;2.67;;
49378;SDS011;35254;47.990;-1.608;2023-03-31T11:45:58;5.40;;;2.22;;
49378;SDS011;35254;47.990;-1.608;2023-03-31T11:48:44;9.90;;;2.88;;
49378;SDS011;35254;47.990;-1.608;2023-03-31T11:51:12;7.70;;;2.70;;
49378;SDS011;35254;47.990;-1.608;2023-03-31T11:53:48;8.82;;;2.50;;
49378;SDS011;35254;47.990;-1.608;2023-03-31T11:56:16;7.55;;;2.20;;
49378;SDS011;35254;47.990;-1.608;2023-03-31T11:58:44;10.52;;;2.22;;
49378;SDS011;35254;47.990;-1.608;2023-03-31T12:04:10;5.38;;;1.70;;
49378;SDS011;35254;47.990;-1.608;2023-03-31T12:07:19;9.00;;;2.40;;
49378;SDS011;35254;47.990;-1.608;2023-03-31T12:09:54;9.18;;;2.67;;
49378;SDS011;35254;47.990;-1.608;2023-03-31T12:12:31;8.32;;;1.88;;
49378;SDS011;35254;47.990;-1.608;2023-03-31T12:18:01;9.27;;;2.33;;
49378;SDS011;35254;47.990;-1.608;2023-03-31T12:20:40;6.80;;;1.63;;
49378;SDS011;35254;47.990;-1.608;2023-03-31T12:23:12;7.45;;;2.20;;
49378;SDS011;35254;47.990;-1.608;2023-03-31T12:25:44;9.68;;;2.50;;
49378;SDS011;35254;47.990;-1.608;2023-03-31T12:28:19;10.18;;;2.42;;
49378;SDS011;35254;47.990;-1.608;2023-03-31T12:30:46;12.32;;;3.25;;
49378;SDS011;35254;47.990;-1.608;2023-03-31T12:33:21;9.43;;;2.13;;
49378;SDS011;35254;47.990;-1.608;2023-03-31T12:36:43;9.27;;;2.45;;
49378;SDS011;35254;47.990;-1.608;2023-03-31T12:39:15;9.57;;;2.38;;
49378;SDS011;35254;47.990;-1.608;2023-03-31T12:41:55;10.90;;;2.40;;
49378;SDS011;35254;47.990;-1.608;2023-03-31T12:47:12;5.97;;;1.73;;
49378;SDS011;35254;47.990;-1.608;2023-03-31T12:57:45;6.53;;;1.70;;
49378;SDS011;35254;47.990;-1.608;2023-03-31T13:00:18;5.72;;;1.90;;
49378;SDS011;35254;47.990;-1.608;2023-03-31T13:02:45;8.65;;;2.30;;
49378;SDS011;35254;47.990;-1.608;2023-03-31T13:05:53;5.07;;;1.85;;
49378;SDS011;35254;47.990;-1.608;2023-03-31T13:08:00;8.55;;;2.35;;
49378;SDS011;35254;47.990;-1.608;2023-03-31T13:10:29;8.52;;;1.95;;
49378;SDS011;35254;47.990;-1.608;2023-03-31T13:13:00;9.10;;;2.10;;
49378;SDS011;35254;47.990;-1.608;2023-03-31T13:17:57;11.82;;;3.45;;
49378;SDS011;35254;47.990;-1.608;2023-03-31T13:23:18;9.65;;;2.08;;
49378;SDS011;35254;47.990;-1.608;2023-03-31T13:28:16;9.45;;;2.58;;
49378;SDS011;35254;47.990;-1.608;2023-03-31T13:30:45;10.60;;;2.17;;
49378;SDS011;35254;47.990;-1.608;2023-03-31T13:36:09;7.20;;;2.20;;
49378;SDS011;35254;47.990;-1.608;2023-03-31T13:38:49;6.47;;;2.70;;
49378;SDS011;35254;47.990;-1.608;2023-03-31T13:41:41;8.43;;;1.88;;
49378;SDS011;35254;47.990;-1.608;2023-03-31T13:52:52;7.45;;;1.70;;
49378;SDS011;35254;47.990;-1.608;2023-03-31T13:55:48;13.02;;;2.38;;
49378;SDS011;35254;47.990;-1.608;2023-03-31T14:08:53;9.70;;;2.15;;
49378;SDS011;35254;47.990;-1.608;2023-03-31T14:11:27;4.10;;;1.80;;
49378;SDS011;35254;47.990;-1.608;2023-03-31T14:14:14;5.90;;;1.73;;
49378;SDS011;35254;47.990;-1.608;2023-03-31T14:16:44;1.83;;;1.05;;
49378;SDS011;35254;47.990;-1.608;2023-03-31T14:36:00;3.13;;;1.25;;
49378;SDS011;35254;47.990;-1.608;2023-03-31T14:38:37;6.50;;;1.63;;
49378;SDS011;35254;47.990;-1.608;2023-03-31T14:41:03;10.40;;;1.85;;
49378;SDS011;35254;47.990;-1.608;2023-03-31T14:43:32;7.60;;;1.75;;
49378;SDS011;35254;47.990;-1.608;2023-03-31T14:46:05;3.70;;;1.83;;
49378;SDS011;35254;47.990;-1.608;2023-03-31T14:48:33;8.60;;;1.98;;
49378;SDS011;35254;47.990;-1.608;2023-03-31T14:51:09;8.35;;;1.67;;
49378;SDS011;35254;47.990;-1.608;2023-03-31T14:53:37;5.53;;;1.65;;
49378;SDS011;35254;47.990;-1.608;2023-03-31T14:56:04;3.53;;;1.30;;
49378;SDS011;35254;47.990;-1.608;2023-03-31T14:58:35;5.13;;;2.00;;
49378;SDS011;35254;47.990;-1.608;2023-03-31T15:01:07;5.63;;;1.70;;
49378;SDS011;35254;47.990;-1.608;2023-03-31T15:03:38;7.15;;;1.30;;
49378;SDS011;35254;47.990;-1.608;2023-03-31T15:06:06;10.00;;;2.17;;
49378;SDS011;35254;47.990;-1.608;2023-03-31T15:08:32;4.93;;;1.30;;
49378;SDS011;35254;47.990;-1.608;2023-03-31T15:11:01;3.78;;;1.13;;
49378;SDS011;35254;47.990;-1.608;2023-03-31T15:13:32;5.60;;;1.88;;
49378;SDS011;35254;47.990;-1.608;2023-03-31T15:18:44;5.65;;;1.42;;
49378;SDS011;35254;47.990;-1.608;2023-03-31T15:21:20;4.80;;;1.73;;
49378;SDS011;35254;47.990;-1.608;2023-03-31T15:23:49;4.55;;;1.10;;
49378;SDS011;35254;47.990;-1.608;2023-03-31T15:26:26;4.22;;;1.60;;
49378;SDS011;35254;47.990;-1.608;2023-03-31T15:28:57;4.55;;;1.30;;
49378;SDS011;35254;47.990;-1.608;2023-03-31T15:31:31;5.97;;;1.73;;
49378;SDS011;35254;47.990;-1.608;2023-03-31T15:33:57;6.95;;;2.58;;
49378;SDS011;35254;47.990;-1.608;2023-03-31T15:36:23;4.30;;;1.50;;
49378;SDS011;35254;47.990;-1.608;2023-03-31T15:38:54;5.63;;;1.90;;
49378;SDS011;35254;47.990;-1.608;2023-03-31T15:41:21;5.13;;;1.50;;
49378;SDS011;35254;47.990;-1.608;2023-03-31T15:43:48;3.30;;;1.45;;
49378;SDS011;35254;47.990;-1.608;2023-03-31T15:49:02;4.57;;;1.35;;
49378;SDS011;35254;47.990;-1.608;2023-03-31T15:51:36;8.25;;;1.60;;
49378;SDS011;35254;47.990;-1.608;2023-03-31T15:54:02;6.47;;;1.85;;
49378;SDS011;35254;47.990;-1.608;2023-03-31T15:56:40;9.68;;;1.13;;
49378;SDS011;35254;47.990;-1.608;2023-03-31T16:01:53;2.85;;;1.33;;
49378;SDS011;35254;47.990;-1.608;2023-03-31T16:04:20;3.67;;;1.20;;
49378;SDS011;35254;47.990;-1.608;2023-03-31T16:06:52;5.13;;;2.08;;
49378;SDS011;35254;47.990;-1.608;2023-03-31T16:14:57;7.03;;;1.73;;
49378;SDS011;35254;47.990;-1.608;2023-03-31T16:20:25;4.50;;;1.33;;
49378;SDS011;35254;47.990;-1.608;2023-03-31T16:22:56;5.05;;;1.30;;
49378;SDS011;35254;47.990;-1.608;2023-03-31T16:25:24;8.10;;;1.45;;
49378;SDS011;35254;47.990;-1.608;2023-03-31T16:27:55;7.82;;;1.67;;
49378;SDS011;35254;47.990;-1.608;2023-03-31T16:30:45;12.15;;;1.92;;
49378;SDS011;35254;47.990;-1.608;2023-03-31T16:33:11;7.00;;;1.48;;
49378;SDS011;35254;47.990;-1.608;2023-03-31T16:35:42;5.07;;;1.10;;
49378;SDS011;35254;47.990;-1.608;2023-03-31T16:38:13;5.78;;;1.55;;
49378;SDS011;35254;47.990;-1.608;2023-03-31T16:40:43;6.22;;;1.38;;
49378;SDS011;35254;47.990;-1.608;2023-03-31T16:45:50;6.70;;;1.98;;
49378;SDS011;35254;47.990;-1.608;2023-03-31T16:48:18;3.83;;;1.20;;
49378;SDS011;35254;47.990;-1.608;2023-03-31T16:50:47;5.95;;;1.33;;
49378;SDS011;35254;47.990;-1.608;2023-03-31T16:53:16;6.40;;;1.60;;
49378;SDS011;35254;47.990;-1.608;2023-03-31T16:55:43;5.93;;;1.42;;
49378;SDS011;35254;47.990;-1.608;2023-03-31T16:58:09;3.90;;;1.50;;
49378;SDS011;35254;47.990;-1.608;2023-03-31T17:00:36;6.45;;;1.83;;
49378;SDS011;35254;47.990;-1.608;2023-03-31T17:03:04;7.47;;;1.25;;
49378;SDS011;35254;47.990;-1.608;2023-03-31T17:05:30;5.90;;;1.38;;
49378;SDS011;35254;47.990;-1.608;2023-03-31T17:07:57;6.90;;;1.30;;
49378;SDS011;35254;47.990;-1.608;2023-03-31T17:10:23;13.75;;;1.52;;
49378;SDS011;35254;47.990;-1.608;2023-03-31T17:12:50;6.45;;;1.90;;
49378;SDS011;35254;47.990;-1.608;2023-03-31T17:15:16;7.38;;;1.30;;
49378;SDS011;35254;47.990;-1.608;2023-03-31T17:17:42;8.57;;;2.58;;
49378;SDS011;35254;47.990;-1.608;2023-03-31T17:20:08;3.17;;;0.95;;
49378;SDS011;35254;47.990;-1.608;2023-03-31T17:22:35;4.43;;;1.60;;
49378;SDS011;35254;47.990;-1.608;2023-03-31T17:25:01;5.18;;;1.38;;
49378;SDS011;35254;47.990;-1.608;2023-03-31T17:27:27;3.22;;;1.25;;
49378;SDS011;35254;47.990;-1.608;2023-03-31T17:29:53;10.18;;;2.15;;
49378;SDS011;35254;47.990;-1.608;2023-03-31T17:32:20;6.35;;;1.73;;
49378;SDS011;35254;47.990;-1.608;2023-03-31T17:34:46;3.53;;;1.30;;
49378;SDS011;35254;47.990;-1.608;2023-03-31T17:37:13;4.50;;;1.65;;
49378;SDS011;35254;47.990;-1.608;2023-03-31T17:39:40;6.22;;;1.83;;
49378;SDS011;35254;47.990;-1.608;2023-03-31T17:42:07;4.28;;;1.33;;
49378;SDS011;35254;47.990;-1.608;2023-03-31T17:44:33;7.75;;;1.95;;